createdAt,value
2019-02-20T00:02:16.449Z,101272.80
2019-02-20T00:07:40.947Z,101270.98
2019-02-20T00:13:05.645Z,101275.14
2019-02-20T00:18:29.990Z,101268.70
2019-02-20T00:23:53.826Z,101273.43
2019-02-20T00:29:17.951Z,101275.91
2019-02-20T00:34:42.356Z,101276.23
2019-02-20T00:40:07.641Z,101275.64
2019-02-20T00:45:53.974Z,101288.13
2019-02-20T00:51:42.971Z,101283.06
2019-02-20T00:57:07.054Z,101288.73
2019-02-20T01:02:31.515Z,101287.43
2019-02-20T01:07:56.697Z,101290.03
2019-02-20T01:13:21.843Z,101296.19
2019-02-20T01:18:46.707Z,101294.84
2019-02-20T01:24:11.263Z,101298.14
2019-02-20T01:29:35.406Z,101286.05
2019-02-20T01:34:59.827Z,101282.45
2019-02-20T01:40:24.093Z,101281.66
2019-02-20T01:45:47.990Z,101284.37
2019-02-20T01:51:12.038Z,101288.83
2019-02-20T01:56:35.919Z,101283.62
2019-02-20T02:01:59.929Z,101276.78
2019-02-20T02:07:23.826Z,101257.45
2019-02-20T02:12:47.941Z,101258.00
2019-02-20T02:18:11.744Z,101272.50
2019-02-20T02:23:36.085Z,101281.13
2019-02-20T02:29:00.617Z,101282.91
2019-02-20T02:34:24.649Z,101278.00
2019-02-20T02:39:48.929Z,101274.83
2019-02-20T02:45:13.805Z,101283.45
2019-02-20T02:50:39.193Z,101286.77
2019-02-20T02:56:02.771Z,101291.70
2019-02-20T03:01:26.515Z,101286.82
2019-02-20T03:06:50.283Z,101284.37
2019-02-20T03:12:14.232Z,101293.33
2019-02-20T03:17:38.969Z,101274.97
2019-02-20T03:23:03.693Z,101288.97
2019-02-20T03:28:28.500Z,101292.17
2019-02-20T03:33:53.510Z,101294.20
2019-02-20T03:39:18.061Z,101301.54
2019-02-20T03:44:42.480Z,101307.46
2019-02-20T03:50:07.060Z,101322.03
2019-02-20T03:55:31.878Z,101319.89
2019-02-20T04:00:55.685Z,101328.98
2019-02-20T04:06:20.352Z,101332.98
2019-02-20T04:11:44.045Z,101328.37
2019-02-20T04:17:08.168Z,101324.84
2019-02-20T04:22:32.524Z,101327.20
2019-02-20T04:27:56.237Z,101330.12
2019-02-20T04:33:21.045Z,101331.56
2019-02-20T04:38:45.966Z,101334.54
2019-02-20T04:44:10.598Z,101338.80
2019-02-20T04:49:34.590Z,101335.61
2019-02-20T04:54:58.839Z,101338.59
2019-02-20T05:00:22.779Z,101337.05
2019-02-20T05:05:47.318Z,101345.00
2019-02-20T05:11:13.050Z,101333.52
2019-02-20T05:16:37.722Z,101341.06
2019-02-20T05:22:02.567Z,101341.27
2019-02-20T05:27:26.410Z,101336.39
2019-02-20T05:32:50.838Z,101343.14
2019-02-20T05:38:15.424Z,101342.44
2019-02-20T05:43:40.209Z,101350.96
2019-02-20T05:49:05.259Z,101364.73
2019-02-20T05:54:34.602Z,101365.61
2019-02-20T05:59:55.624Z,101366.17
2019-02-20T06:05:19.932Z,101370.14
2019-02-20T06:10:44.019Z,101375.48
2019-02-20T06:16:08.122Z,101383.16
2019-02-20T06:21:32.042Z,101384.59
2019-02-20T06:26:56.430Z,101386.12
2019-02-20T06:32:21.075Z,101396.64
2019-02-20T06:37:45.287Z,101405.30
2019-02-20T06:43:10.725Z,101417.21
2019-02-20T06:48:35.423Z,101418.11
2019-02-20T06:53:59.366Z,101420.69
2019-02-20T06:59:23.738Z,101418.55
2019-02-20T07:05:40.187Z,101419.81
2019-02-20T07:11:57.552Z,101418.73
2019-02-20T07:17:35.492Z,101431.30
2019-02-20T07:23:20.068Z,101433.77
2019-02-20T07:29:16.142Z,101442.98
2019-02-20T07:34:41.086Z,101444.63
2019-02-20T07:40:06.565Z,101459.93
2019-02-20T07:45:30.710Z,101480.83
2019-02-20T07:50:55.143Z,101482.49
2019-02-20T07:56:19.811Z,101486.27
2019-02-20T08:01:43.728Z,101496.66
2019-02-20T08:07:07.709Z,101508.05
2019-02-20T08:12:32.727Z,101501.14
2019-02-20T08:17:57.235Z,101505.56
2019-02-20T08:23:21.538Z,101517.92
2019-02-20T08:28:45.750Z,101518.94
2019-02-20T08:34:10.220Z,101529.19
2019-02-20T08:39:34.427Z,101534.40
2019-02-20T08:44:58.746Z,101539.17
2019-02-20T08:50:23.013Z,101546.74
2019-02-20T08:55:47.769Z,101549.93
2019-02-20T09:01:11.834Z,101551.72
2019-02-20T09:06:35.536Z,101560.80
2019-02-20T09:12:00.283Z,101581.93
2019-02-20T09:17:24.300Z,101583.11
2019-02-20T09:22:48.843Z,101582.63
2019-02-20T09:28:12.635Z,101590.92
2019-02-20T09:33:37.055Z,101594.22
2019-02-20T09:39:39.981Z,101596.31
2019-02-20T09:45:05.082Z,101602.10
2019-02-20T09:50:29.319Z,101598.17
2019-02-20T09:55:53.056Z,101599.14
2019-02-20T10:01:17.440Z,101607.55
2019-02-20T10:06:41.989Z,101610.54
2019-02-20T10:12:06.036Z,101620.59
2019-02-20T10:17:30.662Z,101617.80
2019-02-20T10:22:55.617Z,101623.45
2019-02-20T10:28:19.483Z,101622.41
2019-02-20T10:33:43.090Z,101626.84
2019-02-20T10:39:07.840Z,101624.39
2019-02-20T10:44:32.394Z,101615.64
2019-02-20T10:49:56.719Z,101630.86
2019-02-20T10:55:21.650Z,101637.63
2019-02-20T11:00:45.746Z,101630.19
2019-02-20T11:06:09.669Z,101628.64
2019-02-20T11:11:34.082Z,101628.23
2019-02-20T11:16:57.718Z,101629.54
2019-02-20T11:22:22.364Z,101632.68
2019-02-20T11:27:47.008Z,101623.28
2019-02-20T11:33:12.629Z,101625.12
2019-02-20T11:38:38.367Z,101618.62
2019-02-20T11:44:03.141Z,101619.88
2019-02-20T11:49:27.510Z,101615.59
2019-02-20T11:54:52.221Z,101618.87
2019-02-20T12:00:19.938Z,101610.64
2019-02-20T12:05:44.649Z,101610.16
2019-02-20T12:11:09.321Z,101610.44
2019-02-20T12:16:34.032Z,101612.31
2019-02-20T12:21:57.994Z,101610.63
2019-02-20T12:27:21.766Z,101615.28
2019-02-20T12:32:46.484Z,101612.95
2019-02-20T12:38:10.958Z,101608.55
2019-02-20T12:43:35.842Z,101601.98
2019-02-20T12:49:00.397Z,101611.01
2019-02-20T12:54:24.941Z,101615.42
2019-02-20T12:59:48.757Z,101617.54
2019-02-20T13:05:13.588Z,101616.95
2019-02-20T13:10:38.222Z,101613.41
2019-02-20T13:16:09.449Z,101609.81
2019-02-20T13:21:29.470Z,101605.50
2019-02-20T13:26:53.826Z,101607.42
2019-02-20T13:32:18.053Z,101619.61
2019-02-20T13:37:42.730Z,101625.83
2019-02-20T13:43:06.562Z,101620.94
2019-02-20T13:48:31.194Z,101615.47
2019-02-20T13:53:55.233Z,101619.52
2019-02-20T13:59:19.207Z,101625.89
2019-02-20T14:04:43.709Z,101617.77
2019-02-20T14:10:10.014Z,101617.37
2019-02-20T14:15:35.179Z,101622.84
2019-02-20T14:21:00.826Z,101622.64
2019-02-20T14:26:24.976Z,101616.45
2019-02-20T14:31:49.706Z,101627.60
2019-02-20T14:37:14.259Z,101621.30
2019-02-20T14:42:38.029Z,101620.71
2019-02-20T14:48:02.855Z,101628.99
2019-02-20T14:53:27.538Z,101631.02
2019-02-20T14:58:51.982Z,101637.13
2019-02-20T15:04:16.357Z,101636.22
2019-02-20T15:09:40.955Z,101638.27
2019-02-20T15:15:10.623Z,101632.06
2019-02-20T15:20:31.431Z,101643.72
2019-02-20T15:25:55.898Z,101644.32
2019-02-20T15:31:21.407Z,101653.02
2019-02-20T15:36:45.264Z,101659.00
2019-02-20T15:42:09.744Z,101660.42
2019-02-20T15:47:33.906Z,101654.84
2019-02-20T15:52:58.593Z,101669.18
2019-02-20T15:58:22.963Z,101674.82
2019-02-20T16:03:46.890Z,101675.55
2019-02-20T16:09:10.679Z,101670.50
2019-02-20T16:14:36.608Z,101677.74
2019-02-20T16:20:01.247Z,101681.30
2019-02-20T16:25:25.633Z,101688.17
2019-02-20T16:30:49.445Z,101693.56
2019-02-20T16:36:13.960Z,101692.05
2019-02-20T16:41:38.281Z,101699.28
2019-02-20T16:47:01.901Z,101713.05
2019-02-20T16:52:25.506Z,101716.39
2019-02-20T16:57:56.213Z,101721.09
2019-02-20T17:03:15.625Z,101720.47
2019-02-20T17:08:39.612Z,101730.31
2019-02-20T17:14:04.347Z,101731.61
2019-02-20T17:19:29.012Z,101745.31
2019-02-20T17:24:53.797Z,101749.48
2019-02-20T17:30:17.548Z,101747.48
2019-02-20T17:35:42.528Z,101751.39
2019-02-20T17:41:07.072Z,101768.59
2019-02-20T17:46:31.016Z,101766.97
2019-02-20T17:51:55.598Z,101769.36
2019-02-20T17:57:19.399Z,101777.77
2019-02-20T18:02:43.378Z,101775.97
2019-02-20T18:08:08.001Z,101784.85
2019-02-20T18:13:33.010Z,101783.13
2019-02-20T18:18:56.808Z,101785.59
2019-02-20T18:24:21.699Z,101782.98
2019-02-20T18:29:46.355Z,101791.66
2019-02-20T18:35:11.096Z,101793.66
2019-02-20T18:40:35.777Z,101798.41
2019-02-20T18:46:00.252Z,101804.95
2019-02-20T18:51:24.777Z,101803.70
2019-02-20T18:56:49.584Z,101800.31
2019-02-20T19:02:14.475Z,101808.39
2019-02-20T19:07:39.025Z,101812.83
2019-02-20T19:14:09.046Z,101813.91
2019-02-20T19:19:47.675Z,101825.99
2019-02-20T19:26:02.771Z,101816.58
2019-02-20T19:31:54.587Z,101820.12
2019-02-20T19:37:31.586Z,101822.67
2019-02-20T19:43:47.106Z,101818.38
2019-02-20T19:49:43.364Z,101825.25
2019-02-20T19:55:38.200Z,101828.38
2019-02-20T20:01:12.953Z,101820.81
2019-02-20T20:06:51.966Z,101819.90
2019-02-20T20:12:51.940Z,101821.29
2019-02-20T20:18:53.979Z,101827.53
2019-02-20T20:24:41.502Z,101829.09
2019-02-20T20:30:56.798Z,101828.59
2019-02-20T20:36:30.825Z,101833.09
2019-02-20T20:42:19.500Z,101829.73
2019-02-20T20:48:11.230Z,101832.61
2019-02-20T20:53:59.564Z,101841.02
2019-02-20T20:59:48.968Z,101836.85
2019-02-20T21:06:15.831Z,101836.72
2019-02-20T21:12:24.992Z,101833.52
2019-02-20T21:18:13.681Z,101821.36
2019-02-20T21:24:24.664Z,101825.02
2019-02-20T21:29:57.647Z,101820.51
2019-02-20T21:35:30.562Z,101824.46
2019-02-20T21:41:13.338Z,101830.92
2019-02-20T21:46:51.176Z,101830.24
2019-02-20T21:52:46.030Z,101829.22
2019-02-20T21:58:33.177Z,101832.06
2019-02-20T22:04:09.138Z,101834.98
2019-02-20T22:10:27.172Z,101843.23
2019-02-20T22:15:59.921Z,101834.16
2019-02-20T22:21:53.579Z,101835.75
2019-02-20T22:27:42.978Z,101837.84
2019-02-20T22:33:33.657Z,101840.69
2019-02-20T22:39:15.094Z,101836.58
2019-02-20T22:45:22.046Z,101845.44
2019-02-20T22:50:52.852Z,101851.59
2019-02-20T22:56:48.135Z,101852.29
2019-02-20T23:02:45.374Z,101867.23
2019-02-20T23:08:20.190Z,101864.66
2019-02-20T23:14:16.455Z,101862.36
2019-02-20T23:19:40.265Z,101873.28
2019-02-20T23:25:04.882Z,101868.12
2019-02-20T23:30:28.839Z,101870.79
2019-02-20T23:35:53.292Z,101869.61
2019-02-20T23:41:18.180Z,101875.52
2019-02-20T23:46:42.012Z,101875.52
2019-02-20T23:52:05.929Z,101874.28
2019-02-20T23:57:29.780Z,101872.11
